createdAt,value
2023-02-04T00:00:22.883Z,20.88
2023-02-04T00:02:49.882Z,22.60
2023-02-04T00:05:19.912Z,24.48
2023-02-04T00:07:46.300Z,23.75
2023-02-04T00:10:13.037Z,20.83
2023-02-04T00:12:39.404Z,24.70
2023-02-04T00:15:06.468Z,18.98
2023-02-04T00:17:32.878Z,21.05
2023-02-04T00:19:59.265Z,20.05
2023-02-04T00:22:28.415Z,24.60
2023-02-04T00:24:54.932Z,22.65
2023-02-04T00:27:21.359Z,22.00
2023-02-04T00:29:47.711Z,23.67
2023-02-04T00:32:14.156Z,22.42
2023-02-04T00:34:41.071Z,25.42
2023-02-04T00:37:07.745Z,23.70
2023-02-04T00:39:34.157Z,26.55
2023-02-04T00:42:00.791Z,21.25
2023-02-04T00:44:27.219Z,20.70
2023-02-04T00:46:53.639Z,21.38
2023-02-04T00:49:19.980Z,23.17
2023-02-04T00:51:46.613Z,22.17
2023-02-04T00:54:15.766Z,22.00
2023-02-04T00:56:43.407Z,27.52
2023-02-04T00:59:10.250Z,21.83
2023-02-04T01:01:37.244Z,24.02
2023-02-04T01:04:03.923Z,21.60
2023-02-04T01:06:30.314Z,21.60
2023-02-04T01:08:56.650Z,24.17
2023-02-04T01:11:23.111Z,19.95
2023-02-04T01:13:49.431Z,21.92
2023-02-04T01:16:15.838Z,24.70
2023-02-04T01:18:42.252Z,21.23
2023-02-04T01:21:08.575Z,20.25
2023-02-04T01:23:34.923Z,22.33
2023-02-04T01:26:01.330Z,24.23
2023-02-04T01:28:27.996Z,20.98
2023-02-04T01:30:54.511Z,20.55
2023-02-04T01:33:21.029Z,21.67
2023-02-04T01:35:47.409Z,23.73
2023-02-04T01:38:13.935Z,22.08
2023-02-04T01:40:41.925Z,21.38
2023-02-04T01:43:09.000Z,19.83
2023-02-04T01:45:35.867Z,18.42
2023-02-04T01:48:07.440Z,21.48
2023-02-04T01:50:34.552Z,19.75
2023-02-04T01:53:01.279Z,19.77
2023-02-04T01:55:31.252Z,21.15
2023-02-04T01:57:58.965Z,22.00
2023-02-04T02:00:31.508Z,23.92
2023-02-04T02:02:59.419Z,21.10
2023-02-04T02:05:32.729Z,22.38
2023-02-04T02:08:02.041Z,25.83
2023-02-04T02:10:29.608Z,21.50
2023-02-04T02:12:57.146Z,24.95
2023-02-04T02:15:24.701Z,22.75
2023-02-04T02:17:53.087Z,23.58
2023-02-04T02:20:22.293Z,23.42
2023-02-04T02:23:46.149Z,21.67
2023-02-04T02:26:13.836Z,22.15
2023-02-04T02:28:40.316Z,22.52
2023-02-04T02:31:07.184Z,19.52
2023-02-04T02:33:34.137Z,20.55
2023-02-04T02:36:00.805Z,21.20
2023-02-04T02:38:27.252Z,21.17
2023-02-04T02:40:54.416Z,24.92
2023-02-04T02:43:23.870Z,20.08
2023-02-04T02:45:51.233Z,20.52
2023-02-04T02:48:18.120Z,23.08
2023-02-04T02:50:45.163Z,24.23
2023-02-04T02:53:14.197Z,24.38
2023-02-04T02:55:40.784Z,19.77
2023-02-04T02:58:15.503Z,20.30
2023-02-04T03:00:41.872Z,25.55
2023-02-04T03:03:17.882Z,20.50
2023-02-04T03:05:47.876Z,23.45
2023-02-04T03:08:16.343Z,24.08
2023-02-04T03:10:44.128Z,22.38
2023-02-04T03:13:13.529Z,21.83
2023-02-04T03:15:41.265Z,21.50
2023-02-04T03:18:07.856Z,20.35
2023-02-04T03:20:35.121Z,28.73
2023-02-04T03:23:01.666Z,23.95
2023-02-04T03:25:28.735Z,22.35
2023-02-04T03:27:58.220Z,29.02
2023-02-04T03:30:25.995Z,23.08
2023-02-04T03:32:52.746Z,21.63
2023-02-04T03:35:19.923Z,25.08
2023-02-04T03:37:46.358Z,24.70
2023-02-04T03:40:13.183Z,22.38
2023-02-04T03:42:39.664Z,22.42
2023-02-04T03:45:06.190Z,18.77
2023-02-04T03:47:32.821Z,25.30
2023-02-04T03:49:59.228Z,23.63
2023-02-04T03:52:25.613Z,26.05
2023-02-04T03:54:51.984Z,24.30
2023-02-04T03:57:18.386Z,22.90
2023-02-04T03:59:44.758Z,21.55
2023-02-04T04:02:11.075Z,22.67
2023-02-04T04:04:37.408Z,24.55
2023-02-04T04:07:03.824Z,22.02
2023-02-04T04:09:30.184Z,21.88
2023-02-04T04:11:56.654Z,22.83
2023-02-04T04:14:23.034Z,21.88
2023-02-04T04:16:49.418Z,25.27
2023-02-04T04:19:15.738Z,22.13
2023-02-04T04:21:42.094Z,23.05
2023-02-04T04:24:08.457Z,22.67
2023-02-04T04:26:34.886Z,22.95
2023-02-04T04:29:01.232Z,22.38
2023-02-04T04:31:27.689Z,24.23
2023-02-04T04:33:54.111Z,23.85
2023-02-04T04:36:20.434Z,23.73
2023-02-04T04:38:46.764Z,27.08
2023-02-04T04:41:13.108Z,23.65
2023-02-04T04:43:39.450Z,26.23
2023-02-04T04:46:05.912Z,23.98
2023-02-04T04:48:32.378Z,22.88
2023-02-04T04:50:58.777Z,28.45
2023-02-04T04:53:25.150Z,22.85
2023-02-04T04:55:51.493Z,25.15
2023-02-04T04:58:17.834Z,22.52
2023-02-04T05:00:44.238Z,22.70
2023-02-04T05:03:10.764Z,23.40
2023-02-04T05:05:40.684Z,24.50
2023-02-04T05:08:13.250Z,22.98
2023-02-04T05:10:40.442Z,21.27
2023-02-04T05:13:06.878Z,21.10
2023-02-04T05:15:33.524Z,28.67
2023-02-04T05:17:59.936Z,26.95
2023-02-04T05:20:26.404Z,25.48
2023-02-04T05:22:53.297Z,31.95
2023-02-04T05:25:19.708Z,23.25
2023-02-04T05:27:46.108Z,25.45
2023-02-04T05:30:14.049Z,28.42
2023-02-04T05:32:41.062Z,24.45
2023-02-04T05:35:08.271Z,23.67
2023-02-04T05:37:34.648Z,27.73
2023-02-04T05:40:01.010Z,27.65
2023-02-04T05:42:27.400Z,25.90
2023-02-04T05:44:53.736Z,25.35
2023-02-04T05:47:20.452Z,27.33
2023-02-04T05:49:46.984Z,24.52
2023-02-04T05:52:13.330Z,21.73
2023-02-04T05:54:39.693Z,22.17
2023-02-04T05:57:06.851Z,26.08
2023-02-04T05:59:33.206Z,24.13
2023-02-04T06:01:59.550Z,26.23
2023-02-04T06:04:25.919Z,27.20
2023-02-04T06:06:52.467Z,26.20
2023-02-04T06:09:18.851Z,26.52
2023-02-04T06:11:45.247Z,36.65
2023-02-04T06:14:11.660Z,29.48
2023-02-04T06:16:38.068Z,26.95
2023-02-04T06:19:04.454Z,28.67
2023-02-04T06:21:30.849Z,28.35
2023-02-04T06:23:57.173Z,28.30
2023-02-04T06:26:24.667Z,28.73
2023-02-04T06:28:51.099Z,29.70
2023-02-04T06:31:17.481Z,28.02
2023-02-04T06:33:43.883Z,26.73
2023-02-04T06:36:10.257Z,29.20
2023-02-04T06:38:36.625Z,28.30
2023-02-04T06:41:02.953Z,26.88
2023-02-04T06:43:29.348Z,30.80
2023-02-04T06:45:55.764Z,36.38
2023-02-04T06:48:22.163Z,32.88
2023-02-04T06:50:48.516Z,28.10
2023-02-04T06:53:14.913Z,30.60
2023-02-04T06:55:41.276Z,33.50
2023-02-04T06:58:07.658Z,29.08
2023-02-04T07:00:34.378Z,31.73
2023-02-04T07:03:01.032Z,35.65
2023-02-04T07:05:27.417Z,32.38
2023-02-04T07:07:53.768Z,35.72
2023-02-04T07:10:23.020Z,33.55
2023-02-04T07:12:49.339Z,38.33
2023-02-04T07:15:16.112Z,36.38
2023-02-04T07:17:42.433Z,43.08
2023-02-04T07:20:10.365Z,42.30
2023-02-04T07:22:36.724Z,39.45
2023-02-04T07:25:03.804Z,40.13
2023-02-04T07:27:30.534Z,42.88
2023-02-04T07:29:56.873Z,43.78
2023-02-04T07:32:23.289Z,39.40
2023-02-04T07:34:49.658Z,47.92
2023-02-04T07:37:16.065Z,43.00
2023-02-04T07:39:42.397Z,50.38
2023-02-04T07:42:09.120Z,45.08
2023-02-04T07:44:35.517Z,45.25
2023-02-04T07:47:01.891Z,47.65
2023-02-04T07:49:28.830Z,45.97
2023-02-04T07:51:55.267Z,52.47
2023-02-04T07:54:23.053Z,50.40
2023-02-04T07:56:49.508Z,50.65
2023-02-04T07:59:15.901Z,55.88
2023-02-04T08:01:42.277Z,46.55
2023-02-04T08:04:08.677Z,51.28
2023-02-04T08:06:35.103Z,53.28
2023-02-04T08:09:01.431Z,57.67
2023-02-04T08:11:53.629Z,51.78
2023-02-04T08:14:18.159Z,54.15
2023-02-04T08:16:44.530Z,51.90
2023-02-04T08:19:10.959Z,53.53
2023-02-04T08:21:37.333Z,56.38
2023-02-04T08:24:04.212Z,58.42
2023-02-04T08:26:30.675Z,54.30
2023-02-04T08:28:57.032Z,53.75
2023-02-04T08:31:23.513Z,53.03
2023-02-04T08:33:49.922Z,53.63
2023-02-04T08:36:16.718Z,51.22
2023-02-04T08:38:44.559Z,51.67
2023-02-04T08:41:11.205Z,53.40
2023-02-04T08:43:37.658Z,53.20
2023-02-04T08:46:05.467Z,56.08
2023-02-04T08:48:31.865Z,55.38
2023-02-04T08:50:58.256Z,52.78
2023-02-04T08:53:24.660Z,52.47
2023-02-04T08:55:51.030Z,54.97
2023-02-04T08:58:17.377Z,55.35
2023-02-04T09:00:43.701Z,56.60
2023-02-04T09:03:10.399Z,56.80
2023-02-04T09:05:39.814Z,53.78
2023-02-04T09:08:06.167Z,51.65
2023-02-04T09:10:32.846Z,50.60
2023-02-04T09:12:59.434Z,43.40
2023-02-04T09:15:25.951Z,42.97
2023-02-04T09:18:04.356Z,40.72
2023-02-04T09:20:31.087Z,35.03
2023-02-04T09:22:57.642Z,34.22
2023-02-04T09:25:24.042Z,31.65
2023-02-04T09:27:50.502Z,32.95
2023-02-04T09:30:17.124Z,38.40
2023-02-04T09:32:43.476Z,34.35
2023-02-04T09:35:09.937Z,32.38
2023-02-04T09:37:36.266Z,33.13
2023-02-04T09:40:02.734Z,34.40
2023-02-04T09:42:29.217Z,42.83
2023-02-04T09:44:55.650Z,33.85
2023-02-04T09:47:25.280Z,35.10
2023-02-04T09:49:52.049Z,32.85
2023-02-04T09:52:18.670Z,35.05
2023-02-04T09:54:45.230Z,34.90
2023-02-04T09:57:19.590Z,30.17
2023-02-04T09:59:46.311Z,33.55
2023-02-04T10:02:21.549Z,37.92
2023-02-04T10:04:48.401Z,36.88
2023-02-04T10:07:21.957Z,37.97
2023-02-04T10:09:50.106Z,38.38
2023-02-04T10:12:16.609Z,32.60
2023-02-04T10:14:43.699Z,33.17
2023-02-04T10:17:11.516Z,31.88
2023-02-04T10:19:38.005Z,30.48
2023-02-04T10:22:16.970Z,28.38
2023-02-04T10:24:43.532Z,29.77
2023-02-04T10:27:11.911Z,33.00
2023-02-04T10:29:40.253Z,31.77
2023-02-04T10:32:06.742Z,26.13
2023-02-04T10:34:43.708Z,32.15
2023-02-04T10:37:21.269Z,26.90
2023-02-04T10:39:49.644Z,24.15
2023-02-04T10:42:27.581Z,30.13
2023-02-04T10:44:54.835Z,31.60
2023-02-04T10:47:24.529Z,31.55
2023-02-04T10:50:00.286Z,26.13
2023-02-04T10:52:35.133Z,27.02
2023-02-04T10:55:04.422Z,26.33
2023-02-04T10:57:33.045Z,33.33
2023-02-04T11:00:02.324Z,30.35
2023-02-04T11:02:48.990Z,26.55
2023-02-04T11:05:21.437Z,28.27
2023-02-04T11:07:49.543Z,26.17
2023-02-04T11:10:22.052Z,23.58
2023-02-04T11:12:54.486Z,33.63
2023-02-04T11:15:36.172Z,22.40
2023-02-04T11:18:04.870Z,29.65
2023-02-04T11:20:34.148Z,28.83
2023-02-04T11:23:25.561Z,22.15
2023-02-04T11:26:32.604Z,27.15
2023-02-04T11:28:58.879Z,27.35
2023-02-04T11:31:27.155Z,25.15
2023-02-04T11:34:22.953Z,22.65
2023-02-04T11:37:07.974Z,27.38
2023-02-04T11:39:42.329Z,24.48
2023-02-04T11:42:23.151Z,21.73
2023-02-04T11:44:54.669Z,25.85
2023-02-04T11:47:23.669Z,22.27
2023-02-04T11:49:55.973Z,26.92
2023-02-04T11:52:22.465Z,27.15
2023-02-04T11:54:59.589Z,23.58
2023-02-04T11:57:26.822Z,24.67
2023-02-04T11:59:54.210Z,22.20
2023-02-04T12:02:23.875Z,22.38
2023-02-04T12:05:12.610Z,29.52
2023-02-04T12:07:39.947Z,20.38
2023-02-04T12:10:24.120Z,22.63
2023-02-04T12:12:57.572Z,24.80
2023-02-04T12:15:36.139Z,28.37
2023-02-04T12:18:04.574Z,20.67
2023-02-04T12:20:31.149Z,25.58
2023-02-04T12:22:57.656Z,22.08
2023-02-04T12:25:24.531Z,21.23
2023-02-04T12:27:51.705Z,18.73
2023-02-04T12:30:20.552Z,21.30
2023-02-04T12:32:46.921Z,20.08
2023-02-04T12:35:13.830Z,21.73
2023-02-04T12:37:41.710Z,16.60
2023-02-04T12:40:09.974Z,21.30
2023-02-04T12:42:36.408Z,19.55
2023-02-04T12:45:02.947Z,17.58
2023-02-04T12:47:29.312Z,20.83
2023-02-04T12:49:55.673Z,17.75
2023-02-04T12:52:22.016Z,20.48
2023-02-04T12:54:48.572Z,15.25
2023-02-04T12:57:19.579Z,16.67
2023-02-04T12:59:46.949Z,20.52
2023-02-04T13:02:13.451Z,25.70
2023-02-04T13:04:40.464Z,20.25
2023-02-04T13:07:10.316Z,16.20
2023-02-04T13:09:37.093Z,21.42
2023-02-04T13:12:04.167Z,19.23
2023-02-04T13:14:32.512Z,22.38
2023-02-04T13:16:59.453Z,19.17
2023-02-04T13:19:25.821Z,21.02
2023-02-04T13:21:52.185Z,19.50
2023-02-04T13:24:18.524Z,18.08
2023-02-04T13:26:44.948Z,18.20
2023-02-04T13:29:11.800Z,19.02
2023-02-04T13:31:38.192Z,23.85
2023-02-04T13:34:04.560Z,17.83
2023-02-04T13:36:30.876Z,17.95
2023-02-04T13:39:01.008Z,24.15
2023-02-04T13:41:28.224Z,15.85
2023-02-04T13:43:54.730Z,23.90
2023-02-04T13:46:21.913Z,16.20
2023-02-04T13:48:48.287Z,18.35
2023-02-04T13:51:14.664Z,17.85
2023-02-04T13:53:41.025Z,16.60
2023-02-04T13:56:07.567Z,21.70
2023-02-04T13:58:34.111Z,20.55
2023-02-04T14:01:02.917Z,16.55
2023-02-04T14:03:30.047Z,22.60
2023-02-04T14:05:56.747Z,23.27
2023-02-04T14:08:23.699Z,23.60
2023-02-04T14:10:50.097Z,17.13
2023-02-04T14:13:16.812Z,23.20
2023-02-04T14:15:43.152Z,18.38
2023-02-04T14:18:10.922Z,18.55
2023-02-04T14:20:37.696Z,17.33
2023-02-04T14:23:05.856Z,17.95
2023-02-04T14:25:32.228Z,20.73
2023-02-04T14:28:00.177Z,19.83
2023-02-04T14:30:28.992Z,17.73
2023-02-04T14:32:56.526Z,15.00
2023-02-04T14:35:23.044Z,21.65
2023-02-04T14:37:49.682Z,21.55
2023-02-04T14:40:18.237Z,20.08
2023-02-04T14:42:45.334Z,16.63
2023-02-04T14:45:13.764Z,14.68
2023-02-04T14:47:40.510Z,13.15
2023-02-04T14:50:10.930Z,22.33
2023-02-04T14:52:37.340Z,14.23
2023-02-04T14:55:03.932Z,16.35
2023-02-04T14:57:30.267Z,13.45
2023-02-04T14:59:56.686Z,17.30
2023-02-04T15:02:23.264Z,18.40
2023-02-04T15:04:49.761Z,15.82
2023-02-04T15:07:16.143Z,18.30
2023-02-04T15:09:44.524Z,18.23
2023-02-04T15:12:11.444Z,20.00
2023-02-04T15:14:37.862Z,19.52
2023-02-04T15:17:04.313Z,16.67
2023-02-04T15:19:33.538Z,16.58
2023-02-04T15:22:14.292Z,22.63
2023-02-04T15:24:40.629Z,15.48
2023-02-04T15:27:07.074Z,15.35
2023-02-04T15:29:33.501Z,26.58
2023-02-04T15:32:00.075Z,17.23
2023-02-04T15:34:26.553Z,20.10
2023-02-04T15:36:52.946Z,24.88
2023-02-04T15:39:19.319Z,22.75
2023-02-04T15:41:45.663Z,23.13
2023-02-04T15:44:12.526Z,20.15
2023-02-04T15:46:38.974Z,18.95
2023-02-04T15:49:05.442Z,26.08
2023-02-04T15:51:31.839Z,22.63
2023-02-04T15:53:58.186Z,24.65
2023-02-04T15:56:24.651Z,22.63
2023-02-04T15:58:50.974Z,25.25
2023-02-04T16:01:17.439Z,17.30
2023-02-04T16:03:45.852Z,19.02
2023-02-04T16:06:12.225Z,20.70
2023-02-04T16:08:38.830Z,17.23
2023-02-04T16:11:06.130Z,19.83
2023-02-04T16:13:32.857Z,17.63
2023-02-04T16:15:59.319Z,28.05
2023-02-04T16:18:25.781Z,28.35
2023-02-04T16:20:52.428Z,30.98
2023-02-04T16:23:18.905Z,40.67
2023-02-04T16:25:45.239Z,37.22
2023-02-04T16:28:11.712Z,27.30
2023-02-04T16:30:39.309Z,24.65
2023-02-04T16:33:06.835Z,22.88
2023-02-04T16:35:58.191Z,22.58
2023-02-04T16:38:25.915Z,25.15
2023-02-04T16:40:52.893Z,24.40
2023-02-04T16:43:19.463Z,24.52
2023-02-04T16:45:46.213Z,22.13
2023-02-04T16:48:12.662Z,24.98
2023-02-04T16:50:39.039Z,23.65
2023-02-04T16:53:05.604Z,26.88
2023-02-04T16:55:33.480Z,22.42
2023-02-04T16:58:00.094Z,23.85
2023-02-04T17:00:26.500Z,23.30
2023-02-04T17:02:53.596Z,23.88
2023-02-04T17:05:19.985Z,16.08
2023-02-04T17:07:46.310Z,21.15
2023-02-04T17:10:12.669Z,20.33
2023-02-04T17:12:39.065Z,20.90
2023-02-04T17:15:05.783Z,20.67
2023-02-04T17:17:32.281Z,23.55
2023-02-04T17:20:00.310Z,22.83
2023-02-04T17:22:26.840Z,25.08
2023-02-04T17:24:54.741Z,23.75
2023-02-04T17:27:21.274Z,26.15
2023-02-04T17:29:47.814Z,25.08
2023-02-04T17:32:14.250Z,23.48
2023-02-04T17:34:40.807Z,20.65
2023-02-04T17:37:07.313Z,28.50
2023-02-04T17:39:33.932Z,24.25
2023-02-04T17:42:03.199Z,17.95
2023-02-04T17:44:30.119Z,28.88
2023-02-04T17:46:59.026Z,23.67
2023-02-04T17:49:27.983Z,22.48
2023-02-04T17:51:54.678Z,22.00
2023-02-04T17:54:21.250Z,25.88
2023-02-04T17:56:56.904Z,18.73
2023-02-04T17:59:23.981Z,23.33
2023-02-04T18:01:58.109Z,22.05
2023-02-04T18:04:25.186Z,25.70
2023-02-04T18:06:52.094Z,26.98
2023-02-04T18:09:18.757Z,26.35
2023-02-04T18:11:45.898Z,27.13
2023-02-04T18:14:17.487Z,24.38
2023-02-04T18:16:44.700Z,26.95
2023-02-04T18:19:21.839Z,24.35
2023-02-04T18:21:49.539Z,28.80
2023-02-04T18:24:30.056Z,20.17
2023-02-04T18:27:01.065Z,24.17
2023-02-04T18:29:32.904Z,23.85
2023-02-04T18:32:16.112Z,25.98
2023-02-04T18:34:53.025Z,20.90
2023-02-04T18:37:36.543Z,26.95
2023-02-04T18:40:09.008Z,23.30
2023-02-04T18:42:43.798Z,20.13
2023-02-04T18:45:22.977Z,23.15
2023-02-04T18:47:49.966Z,21.75
2023-02-04T18:50:28.163Z,27.92
2023-02-04T18:52:54.554Z,23.55
2023-02-04T18:55:34.772Z,24.13
2023-02-04T18:58:40.723Z,18.98
2023-02-04T19:01:10.130Z,20.90
2023-02-04T19:03:45.475Z,19.33
2023-02-04T19:06:25.486Z,25.13
2023-02-04T19:08:52.596Z,23.77
2023-02-04T19:11:41.565Z,26.38
2023-02-04T19:14:33.064Z,21.95
2023-02-04T19:17:22.351Z,26.77
2023-02-04T19:19:57.852Z,24.52
2023-02-04T19:22:46.070Z,24.85
2023-02-04T19:25:25.180Z,21.30
2023-02-04T19:27:54.923Z,19.10
2023-02-04T19:30:27.636Z,20.95
2023-02-04T19:33:02.177Z,22.00
2023-02-04T19:35:39.254Z,20.17
2023-02-04T19:38:22.545Z,23.67
2023-02-04T19:40:51.580Z,19.35
2023-02-04T19:43:26.809Z,19.55
2023-02-04T19:45:54.335Z,18.58
2023-02-04T19:48:36.346Z,19.05
2023-02-04T19:51:28.075Z,25.05
2023-02-04T19:54:39.203Z,17.50
2023-02-04T19:57:25.658Z,19.83
2023-02-04T19:59:56.432Z,23.13
2023-02-04T20:02:36.472Z,20.42
2023-02-04T20:05:15.820Z,21.52
2023-02-04T20:07:42.450Z,22.75
2023-02-04T20:10:25.943Z,23.58
2023-02-04T20:12:59.352Z,20.42
2023-02-04T20:15:25.984Z,24.40
2023-02-04T20:17:52.855Z,24.58
2023-02-04T20:20:21.430Z,19.45
2023-02-04T20:22:48.872Z,17.52
2023-02-04T20:25:36.750Z,20.27
2023-02-04T20:28:15.459Z,24.08
2023-02-04T20:30:41.985Z,21.95
2023-02-04T20:33:44.980Z,23.35
2023-02-04T20:36:28.390Z,19.20
2023-02-04T20:39:17.331Z,21.45
2023-02-04T20:41:43.670Z,23.25
2023-02-04T20:44:20.529Z,20.80
2023-02-04T20:46:46.914Z,27.30
2023-02-04T20:49:25.336Z,25.60
2023-02-04T20:51:59.156Z,24.13
2023-02-04T20:54:29.484Z,25.80
2023-02-04T20:57:14.616Z,21.92
2023-02-04T20:59:42.638Z,21.67
2023-02-04T21:02:20.881Z,26.15
2023-02-04T21:04:51.942Z,24.70
2023-02-04T21:07:22.732Z,24.10
2023-02-04T21:09:49.616Z,26.05
2023-02-04T21:12:16.034Z,23.75
2023-02-04T21:14:42.610Z,27.65
2023-02-04T21:17:08.961Z,27.08
2023-02-04T21:19:35.411Z,26.95
2023-02-04T21:22:02.228Z,30.10
2023-02-04T21:24:31.404Z,26.08
2023-02-04T21:26:57.760Z,29.67
2023-02-04T21:29:25.958Z,26.42
2023-02-04T21:31:54.258Z,29.08
2023-02-04T21:34:20.708Z,29.17
2023-02-04T21:36:47.117Z,28.58
2023-02-04T21:39:13.557Z,30.38
2023-02-04T21:41:39.895Z,29.20
2023-02-04T21:44:06.235Z,29.95
2023-02-04T21:46:33.009Z,30.00
2023-02-04T21:48:59.650Z,28.58
2023-02-04T21:51:27.923Z,30.50
2023-02-04T21:53:54.258Z,34.42
2023-02-04T21:56:20.589Z,28.45
2023-02-04T21:58:46.901Z,32.00
2023-02-04T22:01:15.566Z,31.08
2023-02-04T22:03:41.933Z,29.63
2023-02-04T22:06:08.319Z,31.75
2023-02-04T22:08:34.656Z,31.25
2023-02-04T22:11:01.005Z,34.95
2023-02-04T22:13:27.361Z,34.10
2023-02-04T22:15:53.711Z,35.63
2023-02-04T22:18:20.680Z,37.38
2023-02-04T22:20:47.025Z,38.13
2023-02-04T22:23:13.367Z,40.45
2023-02-04T22:25:39.703Z,34.00
2023-02-04T22:28:06.056Z,33.58
2023-02-04T22:30:32.412Z,37.97
2023-02-04T22:33:00.653Z,28.63
2023-02-04T22:35:29.624Z,27.73
2023-02-04T22:37:55.943Z,27.73
2023-02-04T22:40:22.268Z,25.60
2023-02-04T22:42:48.603Z,30.33
2023-02-04T22:45:14.960Z,25.27
2023-02-04T22:47:41.344Z,27.05
2023-02-04T22:50:08.519Z,28.20
2023-02-04T22:52:34.975Z,26.88
2023-02-04T22:55:01.392Z,29.10
2023-02-04T22:57:27.766Z,28.73
2023-02-04T22:59:54.081Z,33.00
2023-02-04T23:02:20.434Z,33.05
2023-02-04T23:04:46.771Z,31.70
2023-02-04T23:07:13.864Z,35.25
2023-02-04T23:09:40.430Z,36.83
2023-02-04T23:12:13.066Z,34.90
2023-02-04T23:14:42.072Z,34.63
2023-02-04T23:17:09.235Z,35.53
2023-02-04T23:19:35.703Z,34.20
2023-02-04T23:22:02.608Z,35.55
2023-02-04T23:24:29.939Z,35.83
2023-02-04T23:26:58.526Z,36.47
2023-02-04T23:29:24.881Z,34.05
2023-02-04T23:31:51.240Z,35.72
2023-02-04T23:34:17.601Z,36.58
2023-02-04T23:36:45.588Z,37.00
2023-02-04T23:39:12.439Z,35.85
2023-02-04T23:41:38.818Z,33.55
2023-02-04T23:44:05.207Z,35.15
2023-02-04T23:46:31.574Z,35.30
2023-02-04T23:48:57.900Z,36.10
2023-02-04T23:51:24.320Z,31.48
2023-02-04T23:53:50.669Z,35.30
2023-02-04T23:56:16.988Z,33.47
2023-02-04T23:58:43.374Z,34.20
